AirNav  
 
 334 users online  

T19 Duval-Freer Airport
Freer, Texas, USA

GOING TO FREER?


FAA INFORMATION EFFECTIVE 07 DECEMBER 2017

Location

FAA Identifier: T19
Lat/Long: 27-53-19.3000N / 098-35-59.8500W
27-53.321667N / 098-35.997500W
27.8886944 / -98.5999583
(estimated)
Elevation: 564 ft. / 171.9 m (surveyed)
Variation: 07E (1985)
From city: 1 mile NE of FREER, TX
Time zone: UTC -6 (UTC -5 during Daylight Saving Time)
Zip code: 78357

Airport Operations

Airport use: Open to the public
Activation date: 11/1947
Control tower: no
ARTCC: HOUSTON CENTER
FSS: SAN ANGELO FLIGHT SERVICE STATION
NOTAMs facility: SJT (NOTAM-D service available)
Attendance: UNATNDD
Wind indicator: lighted
Segmented circle: yes
Lights: SS-SR
Beacon: white-green (lighted land airport)
Operates sunset to sunrise.

Airport Communications

CTAF: 122.9

Nearby radio navigation aids

VOR radial/distance  VOR name  Freq  Var
ALIr280/(32.0)ALICE VOR114.5006E

 
NDB name  Hdg/Dist  Freq  Var  ID
HEBBRONVILLE007/33.026606EHBV .... -... ...-

Airport Services

Parking: tiedowns
Airframe service: NONE
Powerplant service: NONE

Runway Information

Runway 14/32

Dimensions: 3200 x 60 ft. / 975 x 18 m
Surface: asphalt, in poor condition
BROKEN PIECES OF ASPHALT ALONG RWY EDGES AND THLDS.
Weight bearing capacity: 
Single wheel: 24.0
Runway edge lights: low intensity
SEVERAL RY AND THLD LIGHTS INOPERATIVE AND ARE MOUNTED ON NON-FRANGIBLE STEEL RODS.
RUNWAY 14  RUNWAY 32
Gradient: 1.1%1.1%
Traffic pattern: leftleft
Markings: basic, in good conditionbasic, in good condition
Obstructions: 12 ft. brush, 360 ft. from runway, 13:1 slope to clear42 ft. pole, 977 ft. from runway, 86 ft. right of centerline, 18:1 slope to clear

Airport Ownership and Management from official FAA records

Ownership: Publicly-owned
Owner: DUVAL CO - CITY OF FREER
CITY OF FREER
FREER, TX 78357
Phone 361-394-6612
Manager: ANA GARCIA
P.O. DRAWER N
FREER, TX 78357
Phone 361-394-6612
MAYOR.

Airport Operational Statistics

Aircraft operations: 100/year *
100% transient general aviation
* for 12-month period ending 23 March 2017

Additional Remarks

TO HAVE GATE UNLOCKED, CALL 361-394-6002 (POLICE DEPT).
APRON AND TAXIWAY MARKINGS FADED.

Instrument Procedures

There are no published instrument procedures at T19.

Some nearby airports with instrument procedures:

KNOG - Orange Grove Naval Auxiliary Field (30 nm E)
KALI - Alice International Airport (32 nm E)
KHBV - Jim Hogg County Airport (33 nm S)
KIKG - Kleberg County Airport (36 nm SE)
8T6 - Live Oak County Airport (38 nm NE)
 
Loc | Ops | Rwys | IFR | FBO | Links
Com | Nav | Svcs | Stats | Notes


 
Area around T19 (Duval-Freer Airport)
 
Road maps at: MapQuest Bing Google
 
Aerial photo
WARNING: Photo may not be current or correct
Aerial photo of T19 (Duval-Freer Airport)
Photo by Gregg Gilliam
Taken in January 2009

Do you have a better or more recent aerial photo of Duval-Freer Airport that you would like to share? If so, please send us your photo.

 
Sectional chart

 
Airport distance calculator
Flying to Duval-Freer Airport? Find the distance to fly.

From to T19

Sunrise and sunset
Times for 18-Dec-2017
 Local
(UTC-6)
 Zulu
(UTC)
Morning civil twilight06:5512:55
Sunrise07:2113:21
Sunset17:4123:41
Evening civil twilight18:0700:07

Current date and time
Zulu (UTC)  18-Dec-2017 10:05:41
Local (UTC-6)  18-Dec-2017 04:05:41
 
METAR
KNOG 
29nm E 
180956Z AUTO 01005KT 4SM BR OVC004 12/12 A3011 RMK AO2 SLP176 T01170117 PWINO $
KALI 
32nm E 
180953Z AUTO 01007KT 2 1/2SM BR OVC003 12/11 A3009 RMK AO2 SLP188 T01170106
KHBV 
33nm S 
180955Z AUTO 00000KT 3/4SM BR OVC003 11/11 A3010 RMK AO2 T01080105
KIKG 
36nm SE 
180955Z AUTO 33003KT 1 1/2SM BR OVC002 13/13 A3010 RMK AO2 T01250125
KCOT 
47nm NW 
180953Z AUTO 05004KT 2 1/2SM BR OVC002 10/09 A3011 RMK AO2 SLP194 T01000094
KNQI 
48nm SE 
180956Z AUTO 02007KT 2 1/2SM -RA BR OVC004 12/12 A3008 RMK AO2 RAE32B49 SLP181 P0001 T01220122 $
KBKS 
48nm SE 
180955Z AUTO 00000KT 4SM OVC004 13/12 A3009 RMK AO1 T01250115
KRBO 
49nm E 
180955Z AUTO 02006KT 3SM BR OVC002 12/12 A3009 RMK AO2 T01200117
TAF
KALI 
32nm E 
180522Z 1806/1906 36004KT 3SM BR OVC003 FM180800 04005KT 2SM BR VCSH OVC002 FM181400 02005KT 4SM BR VCSH OVC006 FM190000 06005KT 5SM BR OVC003
NOTAMs
Click for the latest NOTAMs
NOTAMs are issued by the DoD/FAA and will open in a separate window not controlled by AirNav.

 

 
 

Would you like to see your business listed on this page?

 If your business provides an interesting product or service to pilots, flight crews, aircraft, or users of the Duval-Freer Airport, you should consider listing it here.  To start the listing process, click on the button below
 
Add a business
 

Other Pages about Duval-Freer Airport

Update a link
 
Copyright © AirNav, LLC. All rights reserved. Privacy Policy  Contact